Time;durP1;ratioP1;P1;durP2;ratioP2;P2;SDS_P1;SDS_P2;PMS_P1;PMS_P2;Temp;Humidity;BMP_temperature;BMP_pressure;BME280_temperature;BME280_humidity;BME280_pressure;Samples;Min_cycle;Max_cycle;Signal;HPM_P1;HPM_P2
2022/03/02 00:01:56;;;;;;;;;15.75;15.75;;;;;19.08;27.82;101797.75;5077798;27;45223;-53
2022/03/02 00:04:22;;;;;;;;;17.50;15.75;;;;;19.07;27.96;101798.69;5078204;27;45244;-51
2022/03/02 00:06:48;;;;;;;;;14.75;14.25;;;;;19.06;27.90;101797.81;5077947;27;45667;-53
2022/03/02 00:09:13;;;;;;;;;17.00;15.75;;;;;19.04;27.77;101791.75;5077630;27;46104;-53
2022/03/02 00:11:39;;;;;;;;;17.25;16.00;;;;;19.03;27.68;101784.75;5077714;27;45200;-53
2022/03/02 00:14:05;;;;;;;;;18.00;17.50;;;;;19.02;27.73;101783.03;5077681;27;45667;-53
2022/03/02 00:16:35;;;;;;;;;20.50;20.50;;;;;19.00;27.73;101774.38;5077928;27;45491;-54
2022/03/02 00:19:01;;;;;;;;;16.25;16.25;;;;;18.98;27.69;101770.94;5077533;27;45799;-51
2022/03/02 00:21:27;;;;;;;;;18.00;14.25;;;;;18.96;27.70;101770.13;5077647;27;45371;-53
2022/03/02 00:23:53;;;;;;;;;19.00;15.25;;;;;18.97;27.82;101771.84;5076622;27;45308;-53
2022/03/02 00:26:18;;;;;;;;;21.75;17.25;;;;;18.95;27.58;101769.28;5077655;27;45516;-53
2022/03/02 00:28:44;;;;;;;;;21.00;17.25;;;;;18.92;27.92;101758.84;5077314;27;46419;-56
2022/03/02 00:31:10;;;;;;;;;17.75;17.75;;;;;18.90;27.93;101755.41;5077392;27;45903;-50
2022/03/02 00:33:36;;;;;;;;;15.00;14.25;;;;;18.89;28.03;101756.31;5077539;27;45477;-53
2022/03/02 00:36:02;;;;;;;;;15.50;15.50;;;;;18.90;28.07;101765.06;5077580;27;45512;-54
2022/03/02 00:38:28;;;;;;;;;16.75;16.75;;;;;18.89;28.05;101760.72;5077058;27;45461;-54
2022/03/02 00:40:53;;;;;;;;;20.75;16.75;;;;;18.85;27.84;101760.81;5077543;27;45408;-54
2022/03/02 00:43:18;;;;;;;;;14.25;14.00;;;;;18.84;27.74;101756.47;5077347;27;45313;-54
2022/03/02 00:45:44;;;;;;;;;19.50;16.00;;;;;18.83;27.73;101754.75;5077429;27;45492;-52
2022/03/02 00:48:10;;;;;;;;;17.75;16.25;;;;;18.80;27.65;101749.59;5076862;27;46298;-56
2022/03/02 00:50:37;;;;;;;;;16.00;16.00;;;;;18.81;27.96;101753.09;5076239;27;45830;-52
2022/03/02 00:53:05;;;;;;;;;14.75;13.25;;;;;18.81;28.07;101748.69;5077366;27;45918;-55
2022/03/02 00:55:32;;;;;;;;;16.00;12.75;;;;;18.77;27.93;101749.72;5077403;27;45517;-54
2022/03/02 00:57:57;;;;;;;;;22.00;16.75;;;;;18.78;27.96;101761.94;5077180;27;46107;-53
2022/03/02 01:00:23;;;;;;;;;16.00;13.50;;;;;18.78;27.91;101759.31;5077268;27;45379;-54
2022/03/02 01:02:48;;;;;;;;;13.75;10.75;;;;;18.77;28.13;101752.34;5077161;27;45303;-53
2022/03/02 01:05:14;;;;;;;;;26.00;17.50;;;;;18.76;28.08;101758.50;5077132;27;45599;-54
2022/03/02 01:07:39;;;;;;;;;20.50;17.00;;;;;18.76;28.21;101752.38;5075622;28;47599;-53
2022/03/02 01:10:06;;;;;;;;;17.00;16.25;;;;;18.75;28.21;101748.91;5076762;27;45232;-54
2022/03/02 01:12:33;;;;;;;;;17.00;14.75;;;;;18.75;27.97;101750.66;5076972;27;45319;-54
2022/03/02 01:14:58;;;;;;;;;17.25;14.25;;;;;18.74;28.10;101749.81;5077109;27;45382;-52
2022/03/02 01:17:24;;;;;;;;;17.75;14.25;;;;;18.72;27.99;101741.09;5076894;27;46099;-53
2022/03/02 01:19:49;;;;;;;;;15.00;15.00;;;;;18.72;28.32;101746.38;5076485;27;45508;-55
2022/03/02 01:22:16;;;;;;;;;17.50;17.25;;;;;18.71;28.09;101744.66;5076710;28;45349;-56
2022/03/02 01:24:42;;;;;;;;;17.75;16.75;;;;;18.71;28.17;101744.66;5076912;27;45505;-53
2022/03/02 01:27:07;;;;;;;;;14.75;14.75;;;;;18.68;28.24;101739.53;5076468;28;46114;-52
2022/03/02 01:29:36;;;;;;;;;14.50;13.75;;;;;18.69;28.02;101739.44;5076547;27;45371;-53
2022/03/02 01:32:06;;;;;;;;;22.00;17.50;;;;;18.69;28.03;101743.84;5076606;27;45251;-55
2022/03/02 01:34:31;;;;;;;;;16.25;13.75;;;;;18.66;28.22;101736.06;5076804;27;45487;-56
2022/03/02 01:36:56;;;;;;;;;19.75;16.75;;;;;18.66;28.00;101730.81;5076710;27;45435;-53
2022/03/02 01:39:22;;;;;;;;;17.50;17.50;;;;;18.67;28.12;101738.63;5076481;27;45414;-55
2022/03/02 01:41:48;;;;;;;;;18.00;17.25;;;;;18.63;28.35;101723.88;5076545;27;45780;-56
2022/03/02 01:44:13;;;;;;;;;18.50;16.75;;;;;18.65;28.47;101729.94;5076659;27;45360;-52
2022/03/02 01:46:40;;;;;;;;;13.50;13.25;;;;;18.66;27.98;101722.94;5091916;27;46942;-54
2022/03/02 01:49:06;;;;;;;;;19.75;17.50;;;;;18.65;28.13;101726.47;5076264;27;45770;-53
2022/03/02 01:51:32;;;;;;;;;21.00;17.75;;;;;18.63;28.30;101718.63;5076299;27;45336;-52
2022/03/02 01:53:57;;;;;;;;;23.25;18.00;;;;;18.63;28.25;101720.41;5076756;27;45219;-54
2022/03/02 01:56:23;;;;;;;;;16.50;14.50;;;;;18.63;28.26;101715.16;5076116;27;45231;-54
2022/03/02 01:58:49;;;;;;;;;17.75;15.50;;;;;18.61;28.20;101706.47;5076194;27;45326;-55
2022/03/02 02:01:15;;;;;;;;;22.25;18.00;;;;;18.62;28.22;101708.19;5078238;27;45359;-53
2022/03/02 02:03:40;;;;;;;;;20.50;15.25;;;;;18.60;28.24;101707.38;5080104;27;45603;-53
2022/03/02 02:06:06;;;;;;;;;15.75;15.75;;;;;18.62;28.34;101713.44;5078371;27;46289;-54
2022/03/02 02:08:32;;;;;;;;;15.75;15.50;;;;;18.61;28.26;101707.34;5079687;27;45397;-55
2022/03/02 02:10:59;;;;;;;;;16.00;14.50;;;;;18.60;28.23;101700.38;5080124;27;45393;-55
2022/03/02 02:13:26;;;;;;;;;18.25;16.75;;;;;18.59;28.33;101703.91;5079969;27;45550;-52
2022/03/02 02:15:53;;;;;;;;;17.25;15.00;;;;;18.58;28.21;101696.06;5079304;27;46050;-54
2022/03/02 02:18:19;;;;;;;;;14.25;13.25;;;;;18.59;28.11;101697.78;5079673;27;45817;-55
2022/03/02 02:20:45;;;;;;;;;17.50;14.50;;;;;18.58;28.25;101696.94;5079683;27;45448;-54
2022/03/02 02:23:12;;;;;;;;;18.50;14.50;;;;;18.57;28.08;101683.88;5079695;27;45675;-56
2022/03/02 02:25:38;;;;;;;;;18.75;15.50;;;;;18.58;28.23;101681.19;5079271;27;47184;-52
2022/03/02 02:28:03;;;;;;;;;15.75;15.75;;;;;18.55;28.30;101665.53;5079376;27;45437;-52
2022/03/02 02:30:30;;;;;;;;;15.75;15.50;;;;;18.57;28.44;101683.88;5079813;27;45331;-53
2022/03/02 02:32:55;;;;;;;;;14.50;13.25;;;;;18.57;28.35;101670.75;5079499;27;45652;-55
2022/03/02 02:35:21;;;;;;;;;15.50;14.50;;;;;18.53;28.12;101662.97;5079035;27;46690;-52
2022/03/02 02:37:47;;;;;;;;;16.75;16.25;;;;;18.54;28.32;101664.69;5079370;27;45145;-54
2022/03/02 02:40:15;;;;;;;;;15.25;15.00;;;;;18.53;28.49;101660.34;5079335;27;45367;-55
2022/03/02 02:42:44;;;;;;;;;18.00;15.75;;;;;18.52;28.11;101661.25;5079351;27;45571;-52
2022/03/02 02:45:14;;;;;;;;;19.00;14.75;;;;;18.51;28.36;101649.03;5078881;27;46364;-52
2022/03/02 02:47:40;;;;;;;;;13.75;11.25;;;;;18.53;28.67;101655.09;5078920;27;45440;-54
2022/03/02 02:50:24;;;;;;;;;17.50;16.00;;;;;18.53;28.36;101646.34;5079034;27;45330;-54
2022/03/02 02:52:51;;;;;;;;;16.25;15.00;;;;;18.51;28.39;101638.53;5077894;28;45412;-50
2022/03/02 02:55:17;;;;;;;;;20.75;16.00;;;;;18.50;28.20;101636.81;5078715;27;46633;-53
2022/03/02 02:57:43;;;;;;;;;14.50;14.50;;;;;18.50;28.34;101630.72;5078843;27;45434;-52
2022/03/02 03:00:15;;;;;;;;;13.50;12.00;;;;;18.51;28.16;101632.44;5079002;27;45354;-51
2022/03/02 03:02:41;;;;;;;;;19.00;15.25;;;;;18.48;28.10;101628.13;5079169;27;45415;-51
2022/03/02 03:05:11;;;;;;;;;18.75;17.25;;;;;18.50;28.71;101626.31;5077233;28;47134;-52
2022/03/02 03:07:39;;;;;;;;;18.00;15.00;;;;;18.54;28.35;101622.69;5078869;28;45364;-53
2022/03/02 03:10:06;;;;;;;;;17.50;12.75;;;;;18.59;28.50;101625.16;5078866;27;45468;-51
2022/03/02 03:12:32;;;;;;;;;17.25;17.25;;;;;18.61;28.46;101612.81;5078504;27;45286;-51
2022/03/02 03:14:57;;;;;;;;;15.50;14.75;;;;;18.68;28.25;101613.47;5077088;28;48079;-53
2022/03/02 03:17:22;;;;;;;;;13.75;12.00;;;;;18.74;28.23;101618.50;5078620;27;45325;-51
2022/03/02 03:19:48;;;;;;;;;16.00;14.25;;;;;18.81;28.46;101612.09;5078639;27;45376;-54
2022/03/02 03:22:13;;;;;;;;;15.00;13.25;;;;;18.89;28.40;101619.72;5078974;27;45441;-54
2022/03/02 03:24:39;;;;;;;;;15.75;15.50;;;;;18.94;28.47;101612.56;5078305;27;46211;-53
2022/03/02 03:27:04;;;;;;;;;14.25;14.00;;;;;19.03;28.04;101616.63;5078864;27;45339;-56
2022/03/02 03:29:30;;;;;;;;;18.00;15.00;;;;;19.10;28.11;101626.00;5078849;27;45699;-55
2022/03/02 03:31:55;;;;;;;;;16.00;13.75;;;;;19.16;28.09;101619.66;5078755;27;45514;-56
2022/03/02 03:34:20;;;;;;;;;16.75;15.25;;;;;19.21;28.18;101615.09;5078159;27;45220;-53
2022/03/02 03:36:46;;;;;;;;;16.25;15.00;;;;;19.28;28.13;101616.59;5078315;27;45264;-54
2022/03/02 03:39:11;;;;;;;;;18.67;16.33;;;;;19.36;27.96;101618.91;5078345;27;45401;-56
2022/03/02 03:41:36;;;;;;;;;15.00;14.75;;;;;19.40;27.73;101614.41;5078523;27;45350;-53
2022/03/02 03:44:02;;;;;;;;;16.00;14.25;;;;;19.44;27.86;101622.13;5078395;27;45271;-54
2022/03/02 03:46:27;;;;;;;;;14.50;14.50;;;;;19.50;27.88;101613.13;5077984;28;45366;-54
2022/03/02 03:48:53;;;;;;;;;18.75;15.00;;;;;19.51;27.91;101603.47;5078232;27;45409;-55
2022/03/02 03:51:18;;;;;;;;;18.00;16.25;;;;;19.56;27.93;101606.78;5078338;27;45291;-55
2022/03/02 03:53:44;;;;;;;;;16.75;14.50;;;;;19.59;27.61;101598.75;5077906;27;45395;-53
2022/03/02 03:56:09;;;;;;;;;14.50;13.75;;;;;19.62;27.41;101602.13;5078014;27;45309;-54
2022/03/02 03:58:35;;;;;;;;;15.75;15.25;;;;;19.65;27.78;101603.78;5078429;27;45402;-54
2022/03/02 04:01:00;;;;;;;;;16.75;15.25;;;;;19.62;27.59;101590.75;5078181;27;45539;-54
2022/03/02 04:03:26;;;;;;;;;15.75;15.50;;;;;19.67;27.93;101596.72;5077697;27;46315;-51
2022/03/02 04:05:51;;;;;;;;;17.00;15.00;;;;;19.65;27.65;101592.41;5077871;27;45405;-54
2022/03/02 04:08:16;;;;;;;;;16.00;14.75;;;;;19.69;27.78;101599.25;5077835;27;45354;-53
2022/03/02 04:10:42;;;;;;;;;14.25;13.25;;;;;19.69;27.37;101597.47;5077805;27;45385;-55
2022/03/02 04:13:08;;;;;;;;;19.50;17.50;;;;;19.69;27.36;101597.47;5077675;27;46582;-53
2022/03/02 04:15:33;;;;;;;;;14.50;14.50;;;;;19.70;27.38;101593.94;5077930;27;45379;-54
2022/03/02 04:17:59;;;;;;;;;24.00;18.00;;;;;19.71;27.31;101595.66;5077684;27;45656;-53
2022/03/02 04:20:24;;;;;;;;;14.50;13.50;;;;;19.70;27.57;101593.94;5078093;27;45631;-53
2022/03/02 04:22:50;;;;;;;;;17.25;14.50;;;;;19.71;27.56;101585.13;5077473;27;45399;-54
2022/03/02 04:25:15;;;;;;;;;15.25;14.50;;;;;19.73;27.38;101590.34;5077415;27;45238;-53
2022/03/02 04:27:41;;;;;;;;;18.25;15.75;;;;;19.72;27.50;101586.84;5077704;27;45683;-53
2022/03/02 04:30:07;;;;;;;;;18.50;16.25;;;;;19.70;27.06;101574.69;5078068;27;45264;-48
2022/03/02 04:32:33;;;;;;;;;16.50;14.00;;;;;19.72;27.67;101583.38;5077686;27;46347;-50
2022/03/02 04:34:58;;;;;;;;;15.50;14.75;;;;;19.71;27.28;101579.88;5077312;27;45210;-53
2022/03/02 04:37:24;;;;;;;;;15.00;15.00;;;;;19.72;26.98;101575.47;5077488;27;45228;-55
2022/03/02 04:39:49;;;;;;;;;17.00;15.25;;;;;19.69;27.68;101565.91;5077647;28;45284;-54
2022/03/02 04:42:16;;;;;;;;;19.50;16.25;;;;;19.70;27.48;101572.88;5077195;27;45928;-54
2022/03/02 04:44:41;;;;;;;;;24.00;16.50;;;;;19.67;27.17;101562.50;5077280;27;45902;-54
2022/03/02 04:47:07;;;;;;;;;15.50;14.50;;;;;19.69;27.42;101568.53;5076358;28;45290;-55
2022/03/02 04:49:32;;;;;;;;;21.00;16.75;;;;;19.69;27.34;101572.97;5077408;27;45290;-54
2022/03/02 04:51:58;;;;;;;;;17.75;17.25;;;;;19.67;27.33;101561.66;5077014;27;46218;-52
2022/03/02 04:57:08;;;;;;;;;18.75;16.50;;;;;19.63;27.13;101564.38;5077397;28;45373;-56
2022/03/02 04:59:33;;;;;;;;;20.50;18.00;;;;;19.63;27.25;101560.91;5077526;27;45289;-55
2022/03/02 05:01:59;;;;;;;;;17.75;16.00;;;;;19.60;27.35;101563.66;5076927;27;45398;-55
2022/03/02 05:04:25;;;;;;;;;24.00;17.50;;;;;19.59;27.25;101559.31;5075443;28;45905;-56
2022/03/02 05:06:50;;;;;;;;;19.25;17.00;;;;;19.60;27.50;101563.66;5077016;27;45377;-55
2022/03/02 05:09:15;;;;;;;;;19.25;17.50;;;;;19.53;27.08;101551.69;5077161;27;45307;-56
2022/03/02 05:11:41;;;;;;;;;18.75;15.75;;;;;19.53;27.42;101549.91;5076740;27;46276;-55
2022/03/02 05:14:06;;;;;;;;;15.25;13.75;;;;;19.54;27.28;101545.50;5077064;27;45272;-56
2022/03/02 05:16:32;;;;;;;;;17.75;15.50;;;;;19.51;27.27;101543.88;5076992;27;45291;-53
2022/03/02 05:18:57;;;;;;;;;17.25;14.50;;;;;19.51;27.52;101548.25;5075721;28;45629;-53
2022/03/02 05:21:22;;;;;;;;;17.00;15.75;;;;;19.50;27.22;101550.03;5076707;27;46541;-51
2022/03/02 05:23:48;;;;;;;;;15.50;14.25;;;;;19.46;27.34;101543.19;5076647;27;45300;-53
2022/03/02 05:26:13;;;;;;;;;13.00;13.00;;;;;19.46;27.26;101538.75;5076868;27;45292;-55
2022/03/02 05:28:38;;;;;;;;;16.00;14.75;;;;;19.45;27.32;101547.59;5077271;27;45559;-54
2022/03/02 05:31:04;;;;;;;;;15.75;15.00;;;;;19.42;27.60;101539.81;5076514;27;45256;-56
2022/03/02 05:33:29;;;;;;;;;15.25;14.00;;;;;19.41;27.62;101535.47;5076614;27;45244;-54
2022/03/02 05:35:55;;;;;;;;;16.25;16.00;;;;;19.40;27.67;101539.03;5076081;27;45330;-56
2022/03/02 05:38:20;;;;;;;;;14.50;13.50;;;;;19.38;27.69;101532.97;5076952;28;45589;-54
2022/03/02 05:40:46;;;;;;;;;17.25;16.75;;;;;19.39;27.68;101531.19;5076403;27;45377;-57
2022/03/02 05:43:11;;;;;;;;;17.25;15.50;;;;;19.36;27.68;101524.28;5076450;27;45398;-53
2022/03/02 05:45:37;;;;;;;;;17.00;15.25;;;;;19.35;27.90;101530.44;5076698;27;45403;-55
2022/03/02 05:48:03;;;;;;;;;12.75;12.75;;;;;19.34;27.41;101528.75;5076801;27;45579;-54
2022/03/02 05:50:28;;;;;;;;;16.75;15.00;;;;;19.30;27.61;101521.91;5076271;27;45367;-55
2022/03/02 05:52:54;;;;;;;;;15.25;15.25;;;;;19.30;27.77;101533.25;5076393;27;45463;-55
2022/03/02 05:55:19;;;;;;;;;15.50;14.25;;;;;19.30;27.41;101532.41;5076564;27;45438;-55
2022/03/02 05:57:44;;;;;;;;;19.75;16.00;;;;;19.27;27.66;101532.53;5076675;27;45247;-54
2022/03/02 06:00:10;;;;;;;;;16.25;16.25;;;;;19.25;27.85;101531.72;5076414;27;45476;-52
2022/03/02 06:02:37;;;;;;;;;19.75;15.50;;;;;19.22;27.45;101530.06;5076255;27;45318;-53
2022/03/02 06:05:03;;;;;;;;;18.25;16.00;;;;;19.20;27.59;101523.19;5076153;27;45231;-53
2022/03/02 06:07:28;;;;;;;;;17.75;15.25;;;;;19.19;27.66;101531.97;5076559;27;45223;-51
2022/03/02 06:09:54;;;;;;;;;20.50;17.50;;;;;19.16;27.47;101531.16;5076123;27;45208;-54
2022/03/02 06:12:19;;;;;;;;;19.50;17.25;;;;;19.15;27.57;101534.72;5076080;28;45261;-54
2022/03/02 06:14:45;;;;;;;;;16.00;13.50;;;;;19.12;27.51;101533.97;5076076;27;45421;-54
2022/03/02 06:17:11;;;;;;;;;16.25;14.75;;;;;19.11;27.82;101529.63;5076807;27;45380;-53
2022/03/02 06:19:37;;;;;;;;;17.75;14.50;;;;;19.11;27.91;101527.00;5091556;27;48170;-53
2022/03/02 06:22:04;;;;;;;;;18.00;17.25;;;;;19.08;27.58;101525.34;5074757;28;45457;-55
2022/03/02 06:24:31;;;;;;;;;17.50;16.25;;;;;19.07;27.99;101531.53;5076012;27;45313;-51
2022/03/02 06:26:57;;;;;;;;;15.75;15.75;;;;;19.08;27.89;101537.63;5076186;28;45430;-50
2022/03/02 06:29:22;;;;;;;;;14.50;13.00;;;;;19.02;27.64;101522.09;5075818;27;45454;-51
2022/03/02 06:31:48;;;;;;;;;17.75;15.00;;;;;19.04;27.54;101530.78;5075820;27;45318;-53
2022/03/02 06:34:13;;;;;;;;;21.50;16.25;;;;;19.01;27.61;101521.25;5075845;27;45197;-50
2022/03/02 06:36:39;;;;;;;;;17.50;16.50;;;;;18.99;27.78;101526.56;5076385;27;45294;-53
2022/03/02 06:39:05;;;;;;;;;16.50;16.00;;;;;18.99;27.86;101531.81;5075620;28;45248;-52
2022/03/02 06:41:43;;;;;;;;;16.75;15.50;;;;;18.97;27.67;101525.75;5075682;27;45480;-54
2022/03/02 06:44:31;;;;;;;;;15.75;13.50;;;;;18.95;28.01;101531.97;5076227;27;45364;-52
2022/03/02 06:47:05;;;;;;;;;17.75;16.00;;;;;18.93;27.76;101533.78;5076013;28;45363;-54
2022/03/02 06:50:10;;;;;;;;;17.25;15.50;;;;;18.89;27.91;101533.03;5078920;27;45991;-51
2022/03/02 06:52:41;;;;;;;;;17.75;17.75;;;;;18.89;27.69;101534.81;5079024;27;45752;-54
2022/03/02 06:55:10;;;;;;;;;16.00;15.25;;;;;18.89;27.83;101540.06;5079162;27;45335;-55
2022/03/02 06:57:37;;;;;;;;;17.50;14.75;;;;;18.87;27.78;101531.38;5079237;27;45516;-49
2022/03/02 07:00:09;;;;;;;;;16.00;13.75;;;;;18.85;27.97;101537.56;5078810;28;46243;-52
2022/03/02 07:02:49;;;;;;;;;18.00;16.75;;;;;18.84;27.96;101532.38;5079121;27;45863;-53
2022/03/02 07:05:15;;;;;;;;;16.00;14.75;;;;;18.83;28.00;101536.75;5079176;27;45246;-51
2022/03/02 07:07:41;;;;;;;;;16.25;14.50;;;;;18.81;27.92;101540.34;5079345;27;45329;-55
2022/03/02 07:10:09;;;;;;;;;16.25;13.50;;;;;18.83;28.07;101543.78;5078614;27;45437;-52
2022/03/02 07:12:35;;;;;;;;;20.25;16.50;;;;;18.79;28.07;101537.78;5078620;27;45880;-51
2022/03/02 07:15:01;;;;;;;;;19.00;15.50;;;;;18.80;28.00;101539.47;5078717;27;45815;-53
2022/03/02 07:17:27;;;;;;;;;19.00;17.75;;;;;18.79;27.77;101545.66;5079010;27;45239;-54
2022/03/02 07:19:53;;;;;;;;;19.25;17.00;;;;;18.78;27.79;101543.97;5078507;27;45235;-53
2022/03/02 07:22:21;;;;;;;;;16.00;14.75;;;;;18.78;27.88;101548.34;5078448;27;45809;-52
2022/03/02 07:24:55;;;;;;;;;16.75;14.25;;;;;18.76;27.74;101551.03;5078564;27;45428;-53
2022/03/02 07:27:21;;;;;;;;;16.00;15.25;;;;;18.76;27.74;101553.66;5078441;28;45431;-52
2022/03/02 07:29:52;;;;;;;;;19.00;17.25;;;;;18.76;27.84;101544.91;5078240;27;47345;-54
2022/03/02 07:32:22;;;;;;;;;16.25;14.75;;;;;18.75;27.98;101545.81;5078449;27;45340;-55
2022/03/02 07:34:55;;;;;;;;;15.50;14.50;;;;;18.73;27.98;101548.50;5078426;27;45326;-55
2022/03/02 07:37:21;;;;;;;;;16.75;14.25;;;;;18.70;28.06;101546.84;5078479;27;45370;-53
2022/03/02 07:39:47;;;;;;;;;19.25;15.50;;;;;18.71;27.92;101550.31;5078250;27;47157;-53
2022/03/02 07:42:13;;;;;;;;;15.50;13.75;;;;;18.72;27.96;101546.78;5078530;27;45354;-53
2022/03/02 07:44:39;;;;;;;;;16.00;15.25;;;;;18.71;28.02;101547.69;5078235;27;45287;-51
2022/03/02 07:47:04;;;;;;;;;16.25;15.00;;;;;18.72;27.92;101546.78;5078330;27;45453;-53
2022/03/02 07:49:30;;;;;;;;;17.50;15.75;;;;;18.70;28.06;101540.72;5077958;27;46064;-54
2022/03/02 07:51:58;;;;;;;;;19.50;17.25;;;;;18.69;27.83;101544.25;5077889;27;45442;-55
2022/03/02 07:54:29;;;;;;;;;22.25;17.50;;;;;18.68;27.90;101535.53;5078175;27;45246;-52
2022/03/02 07:56:55;;;;;;;;;18.00;15.25;;;;;18.67;27.98;101538.25;5078414;27;45437;-52
2022/03/02 07:59:21;;;;;;;;;19.75;16.75;;;;;18.68;27.98;101535.53;5077453;27;46133;-50
2022/03/02 08:01:47;;;;;;;;;20.25;15.75;;;;;18.68;28.00;101539.94;5078155;27;45215;-53
2022/03/02 08:04:14;;;;;;;;;15.50;15.50;;;;;18.66;27.89;101536.53;5078368;27;45402;-54
2022/03/02 08:06:41;;;;;;;;;18.25;18.25;;;;;18.64;27.75;101531.31;5078057;27;45392;-54
2022/03/02 08:09:08;;;;;;;;;14.00;11.50;;;;;18.65;27.76;101537.44;5077656;27;45436;-52
2022/03/02 08:11:40;;;;;;;;;16.75;16.25;;;;;18.65;27.80;101538.28;5077689;27;45881;-55
2022/03/02 08:14:06;;;;;;;;;18.25;15.50;;;;;18.63;28.03;101537.47;5077587;27;45456;-53
2022/03/02 08:16:32;;;;;;;;;18.00;15.25;;;;;18.65;27.93;101537.44;5077697;27;45407;-52
2022/03/02 08:19:01;;;;;;;;;17.25;17.25;;;;;18.65;27.91;101540.06;5077530;27;46254;-52
2022/03/02 08:21:29;;;;;;;;;17.25;16.00;;;;;18.65;27.92;101542.69;5077570;27;45797;-54
2022/03/02 08:23:58;;;;;;;;;19.25;17.50;;;;;18.63;27.88;101534.84;5077716;27;45506;-53
2022/03/02 08:26:25;;;;;;;;;18.25;16.75;;;;;18.63;27.81;101534.00;5077696;27;45563;-52
2022/03/02 08:28:55;;;;;;;;;20.25;17.25;;;;;18.62;27.76;101534.91;5077305;27;45443;-55
2022/03/02 08:31:22;;;;;;;;;19.00;16.25;;;;;18.63;27.99;101534.00;5077364;27;45956;-53
2022/03/02 08:33:48;;;;;;;;;19.75;15.25;;;;;18.59;27.88;101525.38;5077851;28;45531;-54
2022/03/02 08:36:16;;;;;;;;;19.00;15.50;;;;;18.62;28.06;101535.78;5077751;27;45384;-50
2022/03/02 08:38:44;;;;;;;;;21.00;17.25;;;;;18.61;27.95;101533.19;5077202;27;46256;-54
2022/03/02 08:41:12;;;;;;;;;17.25;15.25;;;;;18.61;28.01;101541.94;5075948;28;45258;-53
2022/03/02 08:43:39;;;;;;;;;12.00;12.00;;;;;18.61;28.02;101543.69;5077334;27;45350;-55
2022/03/02 08:46:07;;;;;;;;;18.75;16.25;;;;;18.59;28.02;101541.13;5077331;27;45451;-52
2022/03/02 08:48:32;;;;;;;;;14.75;13.25;;;;;18.60;27.96;101544.59;5077108;27;46081;-56
2022/03/02 08:51:00;;;;;;;;;18.25;17.25;;;;;18.61;28.08;101539.31;5077132;27;45433;-54
2022/03/02 08:53:26;;;;;;;;;18.50;17.25;;;;;18.60;28.01;101536.72;5077410;27;45456;-53
2022/03/02 08:55:53;;;;;;;;;19.50;17.00;;;;;18.62;27.79;101540.16;5077401;27;45546;-52
2022/03/02 08:58:19;;;;;;;;;19.25;18.00;;;;;18.58;27.88;101533.28;5077225;27;46188;-53
2022/03/02 09:00:46;;;;;;;;;19.50;13.75;;;;;18.58;28.07;101544.66;5077017;27;45266;-56
2022/03/02 09:03:15;;;;;;;;;17.50;16.25;;;;;18.60;28.02;101537.59;5077069;27;45410;-55
2022/03/02 09:05:42;;;;;;;;;12.25;10.00;;;;;18.60;28.10;101540.22;5077119;27;45487;-54
2022/03/02 09:08:08;;;;;;;;;19.00;17.00;;;;;18.60;27.81;101542.84;5076633;27;46204;-51
2022/03/02 09:10:34;;;;;;;;;18.75;18.25;;;;;18.60;27.71;101532.34;5076010;27;45390;-53
2022/03/02 09:13:00;;;;;;;;;16.75;15.25;;;;;18.61;27.83;101528.81;5076921;27;45456;-53
2022/03/02 09:15:28;;;;;;;;;17.00;16.00;;;;;18.58;27.94;101522.78;5077050;27;45489;-51
2022/03/02 09:17:55;;;;;;;;;18.25;17.00;;;;;18.58;27.87;101522.78;5076649;28;45412;-56
2022/03/02 09:20:21;;;;;;;;;19.25;15.50;;;;;18.61;27.93;101527.94;5075700;28;45877;-54
2022/03/02 09:22:47;;;;;;;;;20.25;16.50;;;;;18.62;28.04;101529.66;5076632;27;45385;-54
2022/03/02 09:25:12;;;;;;;;;16.75;14.25;;;;;18.64;28.01;101522.59;5076765;27;45385;-55
2022/03/02 09:27:39;;;;;;;;;14.00;13.25;;;;;18.71;28.07;101526.69;5075307;28;47283;-53
2022/03/02 09:30:10;;;;;;;;;16.25;14.50;;;;;18.76;27.91;101514.25;5075412;28;45982;-52
2022/03/02 09:32:40;;;;;;;;;17.00;15.50;;;;;18.84;27.94;101516.63;5076777;27;45460;-54
2022/03/02 09:35:10;;;;;;;;;15.25;13.75;;;;;18.90;27.89;101516.38;5076672;27;45536;-54
2022/03/02 09:37:40;;;;;;;;;18.50;16.25;;;;;18.98;27.82;101516.13;5076408;27;45364;-54
2022/03/02 09:40:06;;;;;;;;;15.75;15.75;;;;;19.05;28.12;101520.22;5076436;28;45280;-55
2022/03/02 09:42:40;;;;;;;;;17.75;14.75;;;;;19.09;27.83;101516.56;5076362;27;45356;-55
2022/03/02 09:45:09;;;;;;;;;20.25;15.50;;;;;19.19;27.82;101518.84;5076559;27;45485;-54
2022/03/02 09:47:49;;;;;;;;;14.50;14.50;;;;;19.23;27.47;101515.19;5076292;27;46248;-54
2022/03/02 09:50:17;;;;;;;;;13.50;13.25;;;;;19.31;27.27;101515.72;5076145;27;45887;-54
2022/03/02 09:52:45;;;;;;;;;15.50;15.50;;;;;19.38;27.66;101521.59;5076426;27;45385;-55
2022/03/02 09:55:13;;;;;;;;;18.25;17.25;;;;;19.42;27.37;101510.91;5076549;27;45576;-56
2022/03/02 09:57:47;;;;;;;;;20.00;16.25;;;;;19.46;27.33;101512.47;5076303;27;46393;-56
2022/03/02 10:00:15;;;;;;;;;13.75;13.75;;;;;19.54;27.49;101513.97;5076155;27;45972;-54
2022/03/02 10:02:43;;;;;;;;;16.00;13.75;;;;;19.56;27.43;101506.88;5076282;28;45308;-56
2022/03/02 10:05:11;;;;;;;;;19.25;15.50;;;;;19.60;27.58;101503.19;5076692;27;45441;-55
2022/03/02 10:07:45;;;;;;;;;15.75;14.25;;;;;19.64;27.31;101510.03;5075922;27;45995;-56
2022/03/02 10:10:17;;;;;;;;;19.25;16.75;;;;;19.67;26.98;101506.41;5075912;27;45994;-56
2022/03/02 10:12:43;;;;;;;;;15.50;13.00;;;;;19.69;27.17;101509.84;5076006;27;45398;-56
2022/03/02 10:15:15;;;;;;;;;18.00;14.25;;;;;19.71;27.63;101508.00;5076166;27;45468;-56
2022/03/02 10:17:43;;;;;;;;;14.75;11.50;;;;;19.70;27.01;101507.13;5075964;27;45343;-55
2022/03/02 10:20:13;;;;;;;;;18.50;14.00;;;;;19.73;27.02;101508.81;5076041;27;45927;-56
2022/03/02 10:22:57;;;;;;;;;16.25;16.00;;;;;19.74;27.09;101508.75;5078828;28;46053;-56
2022/03/02 10:25:37;;;;;;;;;15.00;14.00;;;;;19.75;27.02;101505.19;5078479;28;45343;-54
2022/03/02 10:28:06;;;;;;;;;17.00;14.75;;;;;19.74;26.92;101500.84;5079040;27;46476;-52
2022/03/02 10:30:41;;;;;;;;;17.25;12.75;;;;;19.77;26.89;101498.09;5079340;28;46022;-56
2022/03/02 10:33:16;;;;;;;;;6.50;6.00;;;;;19.78;27.12;101497.19;5079495;27;45435;-55
2022/03/02 10:36:20;;;;;;;;;16.25;13.75;;;;;19.78;26.74;101489.28;5079668;27;45386;-56
2022/03/02 10:39:02;;;;;;;;;14.50;14.50;;;;;19.79;27.04;101490.13;5055957;27;46536;-55
2022/03/02 10:41:33;;;;;;;;;12.25;12.25;;;;;19.78;26.88;101485.78;5079146;27;45951;-56
2022/03/02 10:44:28;;;;;;;;;14.00;13.50;;;;;19.81;27.09;101490.06;5079253;27;45390;-53
2022/03/02 10:47:17;;;;;;;;;19.75;16.75;;;;;19.81;26.91;101484.78;5079486;27;45419;-53
2022/03/02 10:49:43;;;;;;;;;16.25;12.50;;;;;19.81;27.15;101474.28;5079095;27;46288;-54
2022/03/02 10:52:14;;;;;;;;;19.50;14.75;;;;;19.83;27.18;101482.97;5078994;28;45254;-54
2022/03/02 10:54:41;;;;;;;;;14.50;14.25;;;;;19.81;27.41;101479.53;5079050;27;45890;-54
2022/03/02 10:57:11;;;;;;;;;14.50;13.75;;;;;19.81;27.15;101469.00;5079245;27;45544;-53
2022/03/02 10:59:37;;;;;;;;;15.75;15.00;;;;;19.81;26.62;101467.25;5078807;27;47256;-54
2022/03/02 11:02:03;;;;;;;;;15.50;13.00;;;;;19.82;27.39;101468.09;5078890;28;45821;-53
2022/03/02 11:04:30;;;;;;;;;16.00;15.25;;;;;19.80;27.11;101457.66;5078837;27;45386;-54
2022/03/02 11:06:56;;;;;;;;;17.75;15.25;;;;;19.81;26.77;101456.72;5079205;27;45557;-56
2022/03/02 11:09:25;;;;;;;;;17.75;16.75;;;;;19.81;27.01;101458.50;5077693;27;47453;-54
2022/03/02 11:11:54;;;;;;;;;18.75;16.25;;;;;19.81;27.17;101453.22;5078684;27;45429;-52
2022/03/02 11:14:19;;;;;;;;;13.50;13.25;;;;;19.77;26.54;101448.13;5078708;27;45452;-54